sensor_id;sensor_type;location;lat;lon;timestamp;P1;durP1;ratioP1;P2;durP2;ratioP2
66946;SDS011;53853;51.982;5.928;2022-11-23T00:02:23;7.30;;;3.50;;
66946;SDS011;53853;51.982;5.928;2022-11-23T00:04:53;6.22;;;3.33;;
66946;SDS011;53853;51.982;5.928;2022-11-23T00:07:23;8.82;;;3.42;;
66946;SDS011;53853;51.982;5.928;2022-11-23T00:09:52;5.65;;;2.92;;
66946;SDS011;53853;51.982;5.928;2022-11-23T00:12:22;7.43;;;3.50;;
66946;SDS011;53853;51.982;5.928;2022-11-23T00:14:52;7.38;;;3.63;;
66946;SDS011;53853;51.982;5.928;2022-11-23T00:17:24;6.15;;;3.15;;
66946;SDS011;53853;51.982;5.928;2022-11-23T00:19:54;8.77;;;3.38;;
66946;SDS011;53853;51.982;5.928;2022-11-23T00:22:24;9.32;;;2.92;;
66946;SDS011;53853;51.982;5.928;2022-11-23T00:24:54;7.25;;;3.28;;
66946;SDS011;53853;51.982;5.928;2022-11-23T00:27:24;9.48;;;4.40;;
66946;SDS011;53853;51.982;5.928;2022-11-23T00:29:54;6.78;;;3.53;;
66946;SDS011;53853;51.982;5.928;2022-11-23T00:32:27;9.23;;;4.28;;
66946;SDS011;53853;51.982;5.928;2022-11-23T00:34:57;8.93;;;4.10;;
66946;SDS011;53853;51.982;5.928;2022-11-23T00:37:27;8.32;;;3.80;;
66946;SDS011;53853;51.982;5.928;2022-11-23T00:39:57;7.57;;;3.70;;
66946;SDS011;53853;51.982;5.928;2022-11-23T00:42:27;9.52;;;3.75;;
66946;SDS011;53853;51.982;5.928;2022-11-23T00:44:59;5.88;;;3.67;;
66946;SDS011;53853;51.982;5.928;2022-11-23T00:47:31;8.43;;;3.83;;
66946;SDS011;53853;51.982;5.928;2022-11-23T00:50:04;8.93;;;4.97;;
66946;SDS011;53853;51.982;5.928;2022-11-23T00:52:34;6.57;;;4.25;;
66946;SDS011;53853;51.982;5.928;2022-11-23T00:55:04;11.73;;;5.70;;
66946;SDS011;53853;51.982;5.928;2022-11-23T00:57:35;12.60;;;5.30;;
66946;SDS011;53853;51.982;5.928;2022-11-23T01:00:05;10.10;;;6.22;;
66946;SDS011;53853;51.982;5.928;2022-11-23T01:02:39;8.93;;;4.88;;
66946;SDS011;53853;51.982;5.928;2022-11-23T01:05:09;13.65;;;5.00;;
66946;SDS011;53853;51.982;5.928;2022-11-23T01:07:39;12.48;;;5.85;;
66946;SDS011;53853;51.982;5.928;2022-11-23T01:10:09;7.10;;;5.18;;
66946;SDS011;53853;51.982;5.928;2022-11-23T01:12:39;12.10;;;5.72;;
66946;SDS011;53853;51.982;5.928;2022-11-23T01:15:12;11.68;;;5.78;;
66946;SDS011;53853;51.982;5.928;2022-11-23T01:17:44;17.13;;;5.75;;
66946;SDS011;53853;51.982;5.928;2022-11-23T01:20:14;12.60;;;6.00;;
66946;SDS011;53853;51.982;5.928;2022-11-23T01:22:44;9.18;;;5.55;;
66946;SDS011;53853;51.982;5.928;2022-11-23T01:25:15;15.63;;;5.57;;
66946;SDS011;53853;51.982;5.928;2022-11-23T01:27:45;11.18;;;4.43;;
66946;SDS011;53853;51.982;5.928;2022-11-23T01:30:15;15.43;;;6.68;;
66946;SDS011;53853;51.982;5.928;2022-11-23T01:32:47;11.85;;;4.63;;
66946;SDS011;53853;51.982;5.928;2022-11-23T01:35:17;6.38;;;3.45;;
66946;SDS011;53853;51.982;5.928;2022-11-23T01:37:47;10.95;;;4.57;;
66946;SDS011;53853;51.982;5.928;2022-11-23T01:40:17;12.63;;;4.90;;
66946;SDS011;53853;51.982;5.928;2022-11-23T01:42:48;7.50;;;3.58;;
66946;SDS011;53853;51.982;5.928;2022-11-23T01:45:33;12.45;;;4.28;;
66946;SDS011;53853;51.982;5.928;2022-11-23T01:48:10;11.23;;;4.15;;
66946;SDS011;53853;51.982;5.928;2022-11-23T01:50:42;15.73;;;4.95;;
66946;SDS011;53853;51.982;5.928;2022-11-23T01:53:14;17.33;;;5.55;;
66946;SDS011;53853;51.982;5.928;2022-11-23T01:55:48;12.80;;;4.85;;
66946;SDS011;53853;51.982;5.928;2022-11-23T01:58:20;7.20;;;3.50;;
66946;SDS011;53853;51.982;5.928;2022-11-23T02:00:52;10.65;;;4.20;;
66946;SDS011;53853;51.982;5.928;2022-11-23T02:03:25;11.23;;;4.60;;
66946;SDS011;53853;51.982;5.928;2022-11-23T02:05:58;7.07;;;3.60;;
66946;SDS011;53853;51.982;5.928;2022-11-23T02:08:31;8.88;;;4.10;;
66946;SDS011;53853;51.982;5.928;2022-11-23T02:11:02;9.85;;;3.92;;
66946;SDS011;53853;51.982;5.928;2022-11-23T02:13:32;13.07;;;4.15;;
66946;SDS011;53853;51.982;5.928;2022-11-23T02:16:02;14.00;;;4.13;;
66946;SDS011;53853;51.982;5.928;2022-11-23T02:18:35;12.75;;;4.10;;
66946;SDS011;53853;51.982;5.928;2022-11-23T02:21:06;7.50;;;3.13;;
66946;SDS011;53853;51.982;5.928;2022-11-23T02:23:38;8.90;;;3.05;;
66946;SDS011;53853;51.982;5.928;2022-11-23T02:26:16;9.80;;;3.88;;
66946;SDS011;53853;51.982;5.928;2022-11-23T02:28:50;8.90;;;3.53;;
66946;SDS011;53853;51.982;5.928;2022-11-23T02:31:23;15.40;;;4.75;;
66946;SDS011;53853;51.982;5.928;2022-11-23T02:33:53;11.85;;;4.22;;
66946;SDS011;53853;51.982;5.928;2022-11-23T02:36:27;12.13;;;3.88;;
66946;SDS011;53853;51.982;5.928;2022-11-23T02:39:07;10.88;;;3.13;;
66946;SDS011;53853;51.982;5.928;2022-11-23T02:41:43;7.80;;;3.40;;
66946;SDS011;53853;51.982;5.928;2022-11-23T02:44:17;11.10;;;3.92;;
66946;SDS011;53853;51.982;5.928;2022-11-23T02:46:56;11.05;;;3.13;;
66946;SDS011;53853;51.982;5.928;2022-11-23T02:49:27;6.05;;;2.78;;
66946;SDS011;53853;51.982;5.928;2022-11-23T02:51:56;7.55;;;3.45;;
66946;SDS011;53853;51.982;5.928;2022-11-23T02:54:27;9.43;;;3.08;;
66946;SDS011;53853;51.982;5.928;2022-11-23T02:57:00;11.90;;;4.07;;
66946;SDS011;53853;51.982;5.928;2022-11-23T02:59:31;11.05;;;3.58;;
66946;SDS011;53853;51.982;5.928;2022-11-23T03:02:01;8.65;;;4.15;;
66946;SDS011;53853;51.982;5.928;2022-11-23T03:04:32;7.95;;;3.92;;
66946;SDS011;53853;51.982;5.928;2022-11-23T03:07:02;13.88;;;3.88;;
66946;SDS011;53853;51.982;5.928;2022-11-23T03:09:32;12.20;;;3.63;;
66946;SDS011;53853;51.982;5.928;2022-11-23T03:12:05;8.82;;;3.47;;
66946;SDS011;53853;51.982;5.928;2022-11-23T03:14:35;10.65;;;3.22;;
66946;SDS011;53853;51.982;5.928;2022-11-23T03:17:06;10.82;;;3.75;;
66946;SDS011;53853;51.982;5.928;2022-11-23T03:19:40;9.15;;;3.20;;
66946;SDS011;53853;51.982;5.928;2022-11-23T03:22:12;9.73;;;2.83;;
66946;SDS011;53853;51.982;5.928;2022-11-23T03:24:41;8.52;;;3.33;;
66946;SDS011;53853;51.982;5.928;2022-11-23T03:27:17;8.13;;;3.03;;
66946;SDS011;53853;51.982;5.928;2022-11-23T03:29:47;7.43;;;2.38;;
66946;SDS011;53853;51.982;5.928;2022-11-23T03:32:19;4.35;;;1.85;;
66946;SDS011;53853;51.982;5.928;2022-11-23T03:34:52;6.18;;;2.33;;
66946;SDS011;53853;51.982;5.928;2022-11-23T03:37:22;11.55;;;2.58;;
66946;SDS011;53853;51.982;5.928;2022-11-23T03:39:52;7.25;;;2.03;;
66946;SDS011;53853;51.982;5.928;2022-11-23T03:42:37;8.38;;;2.55;;
66946;SDS011;53853;51.982;5.928;2022-11-23T03:45:08;7.78;;;2.50;;
66946;SDS011;53853;51.982;5.928;2022-11-23T03:47:39;6.28;;;2.35;;
66946;SDS011;53853;51.982;5.928;2022-11-23T03:50:09;9.90;;;2.50;;
66946;SDS011;53853;51.982;5.928;2022-11-23T03:52:39;9.63;;;2.58;;
66946;SDS011;53853;51.982;5.928;2022-11-23T03:55:11;10.55;;;3.13;;
66946;SDS011;53853;51.982;5.928;2022-11-23T03:57:44;6.85;;;4.20;;
66946;SDS011;53853;51.982;5.928;2022-11-23T04:00:16;8.25;;;2.92;;
66946;SDS011;53853;51.982;5.928;2022-11-23T04:02:46;9.10;;;3.40;;
66946;SDS011;53853;51.982;5.928;2022-11-23T04:05:35;11.77;;;3.47;;
66946;SDS011;53853;51.982;5.928;2022-11-23T04:08:23;7.28;;;2.80;;
66946;SDS011;53853;51.982;5.928;2022-11-23T04:10:55;12.25;;;3.13;;
66946;SDS011;53853;51.982;5.928;2022-11-23T04:13:39;9.77;;;2.65;;
66946;SDS011;53853;51.982;5.928;2022-11-23T04:16:09;6.07;;;3.08;;
66946;SDS011;53853;51.982;5.928;2022-11-23T04:18:39;8.35;;;2.97;;
66946;SDS011;53853;51.982;5.928;2022-11-23T04:21:09;6.30;;;3.03;;
66946;SDS011;53853;51.982;5.928;2022-11-23T04:23:39;9.30;;;3.55;;
66946;SDS011;53853;51.982;5.928;2022-11-23T04:26:10;8.82;;;2.80;;
66946;SDS011;53853;51.982;5.928;2022-11-23T04:28:45;8.65;;;2.90;;
66946;SDS011;53853;51.982;5.928;2022-11-23T04:31:15;9.20;;;3.22;;
66946;SDS011;53853;51.982;5.928;2022-11-23T04:33:53;13.77;;;4.30;;
66946;SDS011;53853;51.982;5.928;2022-11-23T04:36:25;8.93;;;2.92;;
66946;SDS011;53853;51.982;5.928;2022-11-23T04:38:54;10.50;;;3.15;;
66946;SDS011;53853;51.982;5.928;2022-11-23T04:41:34;7.88;;;2.83;;
66946;SDS011;53853;51.982;5.928;2022-11-23T04:44:07;11.52;;;2.97;;
66946;SDS011;53853;51.982;5.928;2022-11-23T04:46:39;8.15;;;3.25;;
66946;SDS011;53853;51.982;5.928;2022-11-23T04:49:12;8.90;;;2.38;;
66946;SDS011;53853;51.982;5.928;2022-11-23T04:51:43;9.25;;;3.38;;
66946;SDS011;53853;51.982;5.928;2022-11-23T04:54:14;12.10;;;3.65;;
66946;SDS011;53853;51.982;5.928;2022-11-23T04:56:52;7.03;;;2.38;;
66946;SDS011;53853;51.982;5.928;2022-11-23T04:59:24;8.25;;;3.10;;
66946;SDS011;53853;51.982;5.928;2022-11-23T05:01:55;15.00;;;3.95;;
66946;SDS011;53853;51.982;5.928;2022-11-23T05:04:41;9.52;;;2.53;;
66946;SDS011;53853;51.982;5.928;2022-11-23T05:07:12;6.65;;;2.75;;
66946;SDS011;53853;51.982;5.928;2022-11-23T05:09:46;8.27;;;2.47;;
66946;SDS011;53853;51.982;5.928;2022-11-23T05:12:17;8.40;;;2.90;;
66946;SDS011;53853;51.982;5.928;2022-11-23T05:14:50;10.13;;;2.83;;
66946;SDS011;53853;51.982;5.928;2022-11-23T05:17:25;7.22;;;2.95;;
66946;SDS011;53853;51.982;5.928;2022-11-23T05:19:55;9.32;;;2.67;;
66946;SDS011;53853;51.982;5.928;2022-11-23T05:22:27;12.23;;;3.22;;
66946;SDS011;53853;51.982;5.928;2022-11-23T05:24:57;9.05;;;3.30;;
66946;SDS011;53853;51.982;5.928;2022-11-23T05:27:29;6.07;;;2.28;;
66946;SDS011;53853;51.982;5.928;2022-11-23T05:30:02;7.53;;;2.80;;
66946;SDS011;53853;51.982;5.928;2022-11-23T05:32:32;10.90;;;2.88;;
66946;SDS011;53853;51.982;5.928;2022-11-23T05:35:04;8.55;;;3.20;;
66946;SDS011;53853;51.982;5.928;2022-11-23T05:37:36;8.27;;;2.92;;
66946;SDS011;53853;51.982;5.928;2022-11-23T05:40:09;8.67;;;3.27;;
66946;SDS011;53853;51.982;5.928;2022-11-23T05:42:40;7.03;;;2.13;;
66946;SDS011;53853;51.982;5.928;2022-11-23T05:45:17;13.05;;;3.30;;
66946;SDS011;53853;51.982;5.928;2022-11-23T05:47:51;6.82;;;2.40;;
66946;SDS011;53853;51.982;5.928;2022-11-23T05:50:33;9.88;;;2.55;;
66946;SDS011;53853;51.982;5.928;2022-11-23T05:53:22;10.95;;;3.00;;
66946;SDS011;53853;51.982;5.928;2022-11-23T05:55:58;8.02;;;3.22;;
66946;SDS011;53853;51.982;5.928;2022-11-23T05:58:33;9.23;;;2.55;;
66946;SDS011;53853;51.982;5.928;2022-11-23T06:01:06;9.68;;;2.50;;
66946;SDS011;53853;51.982;5.928;2022-11-23T06:03:37;5.70;;;2.00;;
66946;SDS011;53853;51.982;5.928;2022-11-23T06:06:08;7.28;;;2.13;;
66946;SDS011;53853;51.982;5.928;2022-11-23T06:08:41;7.60;;;2.65;;
66946;SDS011;53853;51.982;5.928;2022-11-23T06:11:11;14.57;;;3.15;;
66946;SDS011;53853;51.982;5.928;2022-11-23T06:13:41;11.95;;;3.42;;
66946;SDS011;53853;51.982;5.928;2022-11-23T06:16:17;9.57;;;2.55;;
66946;SDS011;53853;51.982;5.928;2022-11-23T06:19:01;11.70;;;2.97;;
66946;SDS011;53853;51.982;5.928;2022-11-23T06:21:31;11.15;;;3.22;;
66946;SDS011;53853;51.982;5.928;2022-11-23T06:24:01;9.45;;;3.83;;
66946;SDS011;53853;51.982;5.928;2022-11-23T06:26:32;12.00;;;3.88;;
66946;SDS011;53853;51.982;5.928;2022-11-23T06:29:02;8.40;;;2.63;;
66946;SDS011;53853;51.982;5.928;2022-11-23T06:31:35;11.85;;;3.50;;
66946;SDS011;53853;51.982;5.928;2022-11-23T06:34:05;8.48;;;2.88;;
66946;SDS011;53853;51.982;5.928;2022-11-23T06:36:35;14.93;;;3.58;;
66946;SDS011;53853;51.982;5.928;2022-11-23T06:39:06;10.20;;;3.65;;
66946;SDS011;53853;51.982;5.928;2022-11-23T06:41:36;6.50;;;3.00;;
66946;SDS011;53853;51.982;5.928;2022-11-23T06:44:06;6.47;;;2.30;;
66946;SDS011;53853;51.982;5.928;2022-11-23T06:46:42;10.30;;;3.25;;
66946;SDS011;53853;51.982;5.928;2022-11-23T06:49:12;9.32;;;2.72;;
66946;SDS011;53853;51.982;5.928;2022-11-23T06:51:49;11.77;;;3.63;;
66946;SDS011;53853;51.982;5.928;2022-11-23T06:54:19;16.88;;;4.22;;
66946;SDS011;53853;51.982;5.928;2022-11-23T06:56:49;14.65;;;4.03;;
66946;SDS011;53853;51.982;5.928;2022-11-23T06:59:19;20.67;;;4.22;;
66946;SDS011;53853;51.982;5.928;2022-11-23T07:01:52;8.82;;;2.72;;
66946;SDS011;53853;51.982;5.928;2022-11-23T07:04:22;8.35;;;2.92;;
66946;SDS011;53853;51.982;5.928;2022-11-23T07:06:52;10.85;;;4.13;;
66946;SDS011;53853;51.982;5.928;2022-11-23T07:09:33;11.38;;;3.05;;
66946;SDS011;53853;51.982;5.928;2022-11-23T07:12:16;12.30;;;4.33;;
66946;SDS011;53853;51.982;5.928;2022-11-23T07:14:46;14.77;;;3.35;;
66946;SDS011;53853;51.982;5.928;2022-11-23T07:17:19;8.93;;;2.72;;
66946;SDS011;53853;51.982;5.928;2022-11-23T07:19:49;15.18;;;4.55;;
66946;SDS011;53853;51.982;5.928;2022-11-23T07:22:20;21.85;;;4.82;;
66946;SDS011;53853;51.982;5.928;2022-11-23T07:24:50;15.30;;;3.85;;
66946;SDS011;53853;51.982;5.928;2022-11-23T07:27:21;18.23;;;4.10;;
66946;SDS011;53853;51.982;5.928;2022-11-23T07:29:51;11.18;;;3.90;;
66946;SDS011;53853;51.982;5.928;2022-11-23T07:32:23;10.82;;;3.05;;
66946;SDS011;53853;51.982;5.928;2022-11-23T07:34:53;9.85;;;2.92;;
66946;SDS011;53853;51.982;5.928;2022-11-23T07:37:25;12.65;;;3.22;;
66946;SDS011;53853;51.982;5.928;2022-11-23T07:39:55;15.13;;;4.30;;
66946;SDS011;53853;51.982;5.928;2022-11-23T07:42:28;11.75;;;3.85;;
66946;SDS011;53853;51.982;5.928;2022-11-23T07:44:58;12.80;;;3.72;;
66946;SDS011;53853;51.982;5.928;2022-11-23T07:47:31;12.48;;;3.28;;
66946;SDS011;53853;51.982;5.928;2022-11-23T07:50:01;13.50;;;3.50;;
66946;SDS011;53853;51.982;5.928;2022-11-23T07:52:31;9.32;;;3.13;;
66946;SDS011;53853;51.982;5.928;2022-11-23T07:55:02;14.23;;;3.65;;
66946;SDS011;53853;51.982;5.928;2022-11-23T07:57:33;12.75;;;3.47;;
66946;SDS011;53853;51.982;5.928;2022-11-23T08:00:04;10.98;;;3.35;;
66946;SDS011;53853;51.982;5.928;2022-11-23T08:02:41;12.30;;;2.63;;
66946;SDS011;53853;51.982;5.928;2022-11-23T08:05:10;10.82;;;3.33;;
66946;SDS011;53853;51.982;5.928;2022-11-23T08:07:40;9.05;;;3.38;;
66946;SDS011;53853;51.982;5.928;2022-11-23T08:10:11;8.27;;;3.53;;
66946;SDS011;53853;51.982;5.928;2022-11-23T08:12:41;11.95;;;2.95;;
66946;SDS011;53853;51.982;5.928;2022-11-23T08:15:11;15.10;;;4.50;;
66946;SDS011;53853;51.982;5.928;2022-11-23T08:17:43;13.85;;;3.67;;
66946;SDS011;53853;51.982;5.928;2022-11-23T08:20:13;14.60;;;3.58;;
66946;SDS011;53853;51.982;5.928;2022-11-23T08:22:43;14.50;;;3.40;;
66946;SDS011;53853;51.982;5.928;2022-11-23T08:25:13;10.02;;;3.03;;
66946;SDS011;53853;51.982;5.928;2022-11-23T08:27:43;12.60;;;3.65;;
66946;SDS011;53853;51.982;5.928;2022-11-23T08:30:13;9.05;;;3.30;;
66946;SDS011;53853;51.982;5.928;2022-11-23T08:32:46;8.82;;;2.88;;
66946;SDS011;53853;51.982;5.928;2022-11-23T08:35:16;14.20;;;3.50;;
66946;SDS011;53853;51.982;5.928;2022-11-23T08:37:46;13.35;;;2.67;;
66946;SDS011;53853;51.982;5.928;2022-11-23T08:40:16;8.45;;;3.17;;
66946;SDS011;53853;51.982;5.928;2022-11-23T08:42:46;8.35;;;2.58;;
66946;SDS011;53853;51.982;5.928;2022-11-23T08:45:16;11.13;;;3.42;;
66946;SDS011;53853;51.982;5.928;2022-11-23T08:47:48;20.25;;;4.78;;
66946;SDS011;53853;51.982;5.928;2022-11-23T08:50:19;10.48;;;4.65;;
66946;SDS011;53853;51.982;5.928;2022-11-23T08:52:53;10.63;;;2.83;;
66946;SDS011;53853;51.982;5.928;2022-11-23T08:55:23;14.25;;;4.13;;
66946;SDS011;53853;51.982;5.928;2022-11-23T08:57:54;12.13;;;3.55;;
66946;SDS011;53853;51.982;5.928;2022-11-23T09:00:24;18.15;;;4.35;;
66946;SDS011;53853;51.982;5.928;2022-11-23T09:02:57;12.13;;;2.88;;
66946;SDS011;53853;51.982;5.928;2022-11-23T09:05:28;13.95;;;3.42;;
66946;SDS011;53853;51.982;5.928;2022-11-23T09:07:58;12.77;;;3.45;;
66946;SDS011;53853;51.982;5.928;2022-11-23T09:10:29;16.25;;;3.85;;
66946;SDS011;53853;51.982;5.928;2022-11-23T09:12:59;11.30;;;3.13;;
66946;SDS011;53853;51.982;5.928;2022-11-23T09:15:28;12.25;;;4.10;;
66946;SDS011;53853;51.982;5.928;2022-11-23T09:18:01;10.10;;;3.72;;
66946;SDS011;53853;51.982;5.928;2022-11-23T09:20:31;16.52;;;4.03;;
66946;SDS011;53853;51.982;5.928;2022-11-23T09:23:01;12.32;;;3.88;;
66946;SDS011;53853;51.982;5.928;2022-11-23T09:25:31;11.10;;;3.42;;
66946;SDS011;53853;51.982;5.928;2022-11-23T09:28:00;11.75;;;3.75;;
66946;SDS011;53853;51.982;5.928;2022-11-23T09:30:31;8.95;;;3.10;;
66946;SDS011;53853;51.982;5.928;2022-11-23T09:33:03;11.98;;;3.15;;
66946;SDS011;53853;51.982;5.928;2022-11-23T09:35:33;7.85;;;2.80;;
66946;SDS011;53853;51.982;5.928;2022-11-23T09:38:03;13.90;;;3.83;;
66946;SDS011;53853;51.982;5.928;2022-11-23T09:40:34;12.80;;;3.60;;
66946;SDS011;53853;51.982;5.928;2022-11-23T09:43:26;12.40;;;3.53;;
66946;SDS011;53853;51.982;5.928;2022-11-23T09:46:09;13.50;;;2.90;;
66946;SDS011;53853;51.982;5.928;2022-11-23T09:48:51;10.63;;;2.92;;
66946;SDS011;53853;51.982;5.928;2022-11-23T09:51:35;13.00;;;4.65;;
66946;SDS011;53853;51.982;5.928;2022-11-23T09:54:09;20.10;;;3.72;;
66946;SDS011;53853;51.982;5.928;2022-11-23T09:56:49;12.48;;;3.10;;
66946;SDS011;53853;51.982;5.928;2022-11-23T09:59:25;9.88;;;3.35;;
66946;SDS011;53853;51.982;5.928;2022-11-23T10:02:04;13.15;;;3.75;;
66946;SDS011;53853;51.982;5.928;2022-11-23T10:04:45;11.32;;;3.30;;
66946;SDS011;53853;51.982;5.928;2022-11-23T10:07:20;10.43;;;2.83;;
66946;SDS011;53853;51.982;5.928;2022-11-23T10:10:03;9.07;;;2.67;;
66946;SDS011;53853;51.982;5.928;2022-11-23T10:12:43;9.18;;;3.25;;
66946;SDS011;53853;51.982;5.928;2022-11-23T10:15:19;11.88;;;4.07;;
66946;SDS011;53853;51.982;5.928;2022-11-23T10:17:58;10.88;;;3.67;;
66946;SDS011;53853;51.982;5.928;2022-11-23T10:20:58;9.50;;;3.03;;
66946;SDS011;53853;51.982;5.928;2022-11-23T10:24:52;10.70;;;3.58;;
66946;SDS011;53853;51.982;5.928;2022-11-23T10:27:33;11.23;;;3.75;;
66946;SDS011;53853;51.982;5.928;2022-11-23T10:30:25;12.52;;;4.05;;
66946;SDS011;53853;51.982;5.928;2022-11-23T10:32:55;10.85;;;2.58;;
66946;SDS011;53853;51.982;5.928;2022-11-23T10:35:30;16.73;;;3.05;;
66946;SDS011;53853;51.982;5.928;2022-11-23T10:38:12;10.95;;;2.72;;
66946;SDS011;53853;51.982;5.928;2022-11-23T10:40:55;12.82;;;3.35;;
66946;SDS011;53853;51.982;5.928;2022-11-23T10:43:31;4.97;;;2.00;;
66946;SDS011;53853;51.982;5.928;2022-11-23T10:46:21;9.45;;;2.30;;
66946;SDS011;53853;51.982;5.928;2022-11-23T10:49:09;8.88;;;2.72;;
66946;SDS011;53853;51.982;5.928;2022-11-23T10:51:51;12.73;;;4.00;;
66946;SDS011;53853;51.982;5.928;2022-11-23T10:54:34;8.27;;;3.30;;
66946;SDS011;53853;51.982;5.928;2022-11-23T10:57:19;11.95;;;3.38;;
66946;SDS011;53853;51.982;5.928;2022-11-23T10:59:58;9.30;;;3.38;;
66946;SDS011;53853;51.982;5.928;2022-11-23T11:02:37;12.55;;;3.83;;
66946;SDS011;53853;51.982;5.928;2022-11-23T11:05:12;10.93;;;2.63;;
66946;SDS011;53853;51.982;5.928;2022-11-23T11:07:51;7.75;;;2.58;;
66946;SDS011;53853;51.982;5.928;2022-11-23T11:10:36;11.18;;;3.25;;
66946;SDS011;53853;51.982;5.928;2022-11-23T11:13:20;8.10;;;2.78;;
66946;SDS011;53853;51.982;5.928;2022-11-23T11:15:52;12.13;;;3.22;;
66946;SDS011;53853;51.982;5.928;2022-11-23T11:18:24;10.00;;;2.83;;
66946;SDS011;53853;51.982;5.928;2022-11-23T11:20:57;7.38;;;2.92;;
66946;SDS011;53853;51.982;5.928;2022-11-23T11:23:29;7.10;;;2.22;;
66946;SDS011;53853;51.982;5.928;2022-11-23T11:26:08;11.48;;;2.33;;
66946;SDS011;53853;51.982;5.928;2022-11-23T11:31:23;10.80;;;3.95;;
66946;SDS011;53853;51.982;5.928;2022-11-23T11:36:46;11.15;;;2.67;;
66946;SDS011;53853;51.982;5.928;2022-11-23T11:39:22;9.65;;;2.78;;
66946;SDS011;53853;51.982;5.928;2022-11-23T11:42:00;7.85;;;2.70;;
66946;SDS011;53853;51.982;5.928;2022-11-23T11:44:35;7.70;;;2.22;;
66946;SDS011;53853;51.982;5.928;2022-11-23T11:47:12;8.07;;;2.22;;
66946;SDS011;53853;51.982;5.928;2022-11-23T11:49:53;6.03;;;2.15;;
66946;SDS011;53853;51.982;5.928;2022-11-23T11:52:27;5.75;;;2.10;;
66946;SDS011;53853;51.982;5.928;2022-11-23T11:55:04;9.27;;;2.78;;
66946;SDS011;53853;51.982;5.928;2022-11-23T11:57:43;4.53;;;2.00;;
66946;SDS011;53853;51.982;5.928;2022-11-23T12:00:17;8.05;;;2.00;;
66946;SDS011;53853;51.982;5.928;2022-11-23T12:02:50;8.15;;;2.22;;
66946;SDS011;53853;51.982;5.928;2022-11-23T12:05:27;10.35;;;3.55;;
66946;SDS011;53853;51.982;5.928;2022-11-23T12:08:05;8.75;;;2.40;;
66946;SDS011;53853;51.982;5.928;2022-11-23T12:10:39;10.88;;;2.83;;
66946;SDS011;53853;51.982;5.928;2022-11-23T12:13:17;8.25;;;2.72;;
66946;SDS011;53853;51.982;5.928;2022-11-23T12:15:51;8.05;;;2.20;;
66946;SDS011;53853;51.982;5.928;2022-11-23T12:18:40;9.23;;;2.63;;
66946;SDS011;53853;51.982;5.928;2022-11-23T12:21:32;6.28;;;2.60;;
66946;SDS011;53853;51.982;5.928;2022-11-23T12:24:27;9.18;;;2.25;;
66946;SDS011;53853;51.982;5.928;2022-11-23T12:27:07;7.60;;;2.33;;
66946;SDS011;53853;51.982;5.928;2022-11-23T12:29:54;6.63;;;2.17;;
66946;SDS011;53853;51.982;5.928;2022-11-23T12:32:42;6.35;;;1.95;;
66946;SDS011;53853;51.982;5.928;2022-11-23T12:35:40;7.13;;;2.58;;
66946;SDS011;53853;51.982;5.928;2022-11-23T12:38:26;5.97;;;2.00;;
66946;SDS011;53853;51.982;5.928;2022-11-23T12:43:53;4.90;;;2.45;;
66946;SDS011;53853;51.982;5.928;2022-11-23T12:46:41;3.80;;;1.63;;
66946;SDS011;53853;51.982;5.928;2022-11-23T12:49:23;9.35;;;2.50;;
66946;SDS011;53853;51.982;5.928;2022-11-23T12:52:19;7.43;;;2.58;;
66946;SDS011;53853;51.982;5.928;2022-11-23T12:55:00;8.70;;;2.30;;
66946;SDS011;53853;51.982;5.928;2022-11-23T13:00:16;10.82;;;2.30;;
66946;SDS011;53853;51.982;5.928;2022-11-23T13:03:03;8.05;;;2.20;;
66946;SDS011;53853;51.982;5.928;2022-11-23T13:06:10;5.95;;;2.17;;
66946;SDS011;53853;51.982;5.928;2022-11-23T13:09:14;8.40;;;2.63;;
66946;SDS011;53853;51.982;5.928;2022-11-23T13:12:01;6.05;;;2.97;;
66946;SDS011;53853;51.982;5.928;2022-11-23T13:14:45;7.00;;;1.90;;
66946;SDS011;53853;51.982;5.928;2022-11-23T13:17:27;9.23;;;2.40;;
66946;SDS011;53853;51.982;5.928;2022-11-23T13:20:15;8.55;;;2.10;;
66946;SDS011;53853;51.982;5.928;2022-11-23T13:22:57;5.00;;;1.50;;
66946;SDS011;53853;51.982;5.928;2022-11-23T13:25:29;5.93;;;2.10;;
66946;SDS011;53853;51.982;5.928;2022-11-23T13:28:00;10.57;;;2.50;;
66946;SDS011;53853;51.982;5.928;2022-11-23T13:30:32;6.43;;;1.85;;
66946;SDS011;53853;51.982;5.928;2022-11-23T13:35:58;5.22;;;1.60;;
66946;SDS011;53853;51.982;5.928;2022-11-23T13:38:35;3.92;;;1.75;;
66946;SDS011;53853;51.982;5.928;2022-11-23T13:44:25;7.22;;;1.98;;
66946;SDS011;53853;51.982;5.928;2022-11-23T13:46:58;7.93;;;2.58;;
66946;SDS011;53853;51.982;5.928;2022-11-23T13:49:44;5.43;;;1.77;;
66946;SDS011;53853;51.982;5.928;2022-11-23T13:52:26;7.60;;;3.17;;
66946;SDS011;53853;51.982;5.928;2022-11-23T13:54:59;7.28;;;2.30;;
66946;SDS011;53853;51.982;5.928;2022-11-23T14:00:46;7.35;;;2.97;;
66946;SDS011;53853;51.982;5.928;2022-11-23T14:06:13;6.75;;;2.25;;
66946;SDS011;53853;51.982;5.928;2022-11-23T14:08:57;4.55;;;1.83;;
66946;SDS011;53853;51.982;5.928;2022-11-23T14:11:33;5.93;;;2.22;;
66946;SDS011;53853;51.982;5.928;2022-11-23T14:14:13;8.45;;;2.15;;
66946;SDS011;53853;51.982;5.928;2022-11-23T14:17:07;7.30;;;2.00;;
66946;SDS011;53853;51.982;5.928;2022-11-23T14:20:00;6.25;;;1.98;;
66946;SDS011;53853;51.982;5.928;2022-11-23T14:22:51;5.13;;;1.80;;
66946;SDS011;53853;51.982;5.928;2022-11-23T14:25:41;7.50;;;1.70;;
66946;SDS011;53853;51.982;5.928;2022-11-23T14:28:22;7.67;;;2.00;;
66946;SDS011;53853;51.982;5.928;2022-11-23T14:31:08;4.85;;;2.53;;
66946;SDS011;53853;51.982;5.928;2022-11-23T14:33:48;6.20;;;1.70;;
66946;SDS011;53853;51.982;5.928;2022-11-23T14:36:25;6.97;;;2.45;;
66946;SDS011;53853;51.982;5.928;2022-11-23T14:42:13;9.88;;;2.15;;
66946;SDS011;53853;51.982;5.928;2022-11-23T14:44:45;6.15;;;2.00;;
66946;SDS011;53853;51.982;5.928;2022-11-23T14:47:23;4.30;;;1.73;;
66946;SDS011;53853;51.982;5.928;2022-11-23T14:49:54;10.75;;;2.10;;
66946;SDS011;53853;51.982;5.928;2022-11-23T14:52:25;6.13;;;1.95;;
66946;SDS011;53853;51.982;5.928;2022-11-23T14:54:57;3.53;;;1.75;;
66946;SDS011;53853;51.982;5.928;2022-11-23T14:57:34;5.40;;;2.33;;
66946;SDS011;53853;51.982;5.928;2022-11-23T15:00:19;6.78;;;2.35;;
66946;SDS011;53853;51.982;5.928;2022-11-23T15:02:53;4.63;;;1.73;;
66946;SDS011;53853;51.982;5.928;2022-11-23T15:05:26;4.97;;;1.70;;
66946;SDS011;53853;51.982;5.928;2022-11-23T15:08:00;7.03;;;1.98;;
66946;SDS011;53853;51.982;5.928;2022-11-23T15:10:37;8.13;;;2.08;;
66946;SDS011;53853;51.982;5.928;2022-11-23T15:13:20;4.47;;;2.03;;
66946;SDS011;53853;51.982;5.928;2022-11-23T15:15:52;8.18;;;2.20;;
66946;SDS011;53853;51.982;5.928;2022-11-23T15:18:30;4.03;;;1.63;;
66946;SDS011;53853;51.982;5.928;2022-11-23T15:21:02;6.45;;;2.28;;
66946;SDS011;53853;51.982;5.928;2022-11-23T15:26:11;5.53;;;1.55;;
66946;SDS011;53853;51.982;5.928;2022-11-23T15:31:18;5.47;;;1.60;;
66946;SDS011;53853;51.982;5.928;2022-11-23T15:33:57;5.13;;;2.58;;
66946;SDS011;53853;51.982;5.928;2022-11-23T15:36:30;5.03;;;2.10;;
66946;SDS011;53853;51.982;5.928;2022-11-23T15:39:01;5.22;;;2.33;;
66946;SDS011;53853;51.982;5.928;2022-11-23T15:41:33;6.72;;;2.00;;
66946;SDS011;53853;51.982;5.928;2022-11-23T15:44:16;7.45;;;2.92;;
66946;SDS011;53853;51.982;5.928;2022-11-23T15:46:51;4.30;;;1.67;;
66946;SDS011;53853;51.982;5.928;2022-11-23T15:49:26;4.90;;;1.65;;
66946;SDS011;53853;51.982;5.928;2022-11-23T15:51:57;6.30;;;2.40;;
66946;SDS011;53853;51.982;5.928;2022-11-23T15:54:30;5.03;;;2.03;;
66946;SDS011;53853;51.982;5.928;2022-11-23T15:57:02;7.78;;;2.40;;
66946;SDS011;53853;51.982;5.928;2022-11-23T15:59:40;3.17;;;1.52;;
66946;SDS011;53853;51.982;5.928;2022-11-23T16:02:13;5.22;;;2.38;;